sensor_id;sensor_type;location;lat;lon;timestamp;pressure;altitude;pressure_sealevel;temperature;humidity
54994;BME280;40891;47.242;8.648;2024-03-06T00:02:05;96415.44;;;3.99;100.00
54994;BME280;40891;47.242;8.648;2024-03-06T00:04:31;96418.59;;;3.97;100.00
54994;BME280;40891;47.242;8.648;2024-03-06T00:06:56;96424.50;;;3.96;100.00
54994;BME280;40891;47.242;8.648;2024-03-06T00:09:23;96423.69;;;3.95;100.00
54994;BME280;40891;47.242;8.648;2024-03-06T00:11:48;96427.66;;;3.94;100.00
54994;BME280;40891;47.242;8.648;2024-03-06T00:14:16;96429.19;;;3.99;100.00
54994;BME280;40891;47.242;8.648;2024-03-06T00:16:42;96427.59;;;3.98;100.00
54994;BME280;40891;47.242;8.648;2024-03-06T00:19:08;96432.28;;;4.01;100.00
54994;BME280;40891;47.242;8.648;2024-03-06T00:21:33;96435.59;;;3.85;100.00
54994;BME280;40891;47.242;8.648;2024-03-06T00:23:58;96436.41;;;3.82;100.00
54994;BME280;40891;47.242;8.648;2024-03-06T00:26:24;96436.44;;;3.79;100.00
54994;BME280;40891;47.242;8.648;2024-03-06T00:28:49;96426.66;;;3.74;100.00
54994;BME280;40891;47.242;8.648;2024-03-06T00:31:14;96434.16;;;3.74;100.00
54994;BME280;40891;47.242;8.648;2024-03-06T00:33:40;96433.75;;;3.72;100.00
54994;BME280;40891;47.242;8.648;2024-03-06T00:36:06;96431.13;;;3.61;100.00
54994;BME280;40891;47.242;8.648;2024-03-06T00:38:31;96446.88;;;3.57;100.00
54994;BME280;40891;47.242;8.648;2024-03-06T00:40:56;96445.31;;;3.53;100.00
54994;BME280;40891;47.242;8.648;2024-03-06T00:43:23;96446.88;;;3.54;100.00
54994;BME280;40891;47.242;8.648;2024-03-06T00:45:48;96446.56;;;3.41;100.00
54994;BME280;40891;47.242;8.648;2024-03-06T00:48:13;96440.72;;;3.39;100.00
54994;BME280;40891;47.242;8.648;2024-03-06T00:50:39;96453.28;;;3.40;100.00
54994;BME280;40891;47.242;8.648;2024-03-06T00:53:06;96451.69;;;3.42;100.00
54994;BME280;40891;47.242;8.648;2024-03-06T00:55:31;96459.88;;;3.50;100.00
54994;BME280;40891;47.242;8.648;2024-03-06T00:57:56;96464.13;;;3.58;100.00
54994;BME280;40891;47.242;8.648;2024-03-06T01:00:22;96463.72;;;3.59;100.00
54994;BME280;40891;47.242;8.648;2024-03-06T01:02:47;96463.41;;;3.50;100.00
54994;BME280;40891;47.242;8.648;2024-03-06T01:05:13;96461.47;;;3.47;100.00
54994;BME280;40891;47.242;8.648;2024-03-06T01:07:38;96457.13;;;3.46;100.00
54994;BME280;40891;47.242;8.648;2024-03-06T01:10:05;96457.63;;;3.34;100.00
54994;BME280;40891;47.242;8.648;2024-03-06T01:12:32;96453.38;;;3.26;100.00
54994;BME280;40891;47.242;8.648;2024-03-06T01:14:57;96461.28;;;3.17;100.00
54994;BME280;40891;47.242;8.648;2024-03-06T01:17:22;96453.09;;;3.10;100.00
54994;BME280;40891;47.242;8.648;2024-03-06T01:19:47;96455.81;;;3.17;100.00
54994;BME280;40891;47.242;8.648;2024-03-06T01:22:13;96455.75;;;3.24;100.00
54994;BME280;40891;47.242;8.648;2024-03-06T01:24:38;96462.00;;;3.28;100.00
54994;BME280;40891;47.242;8.648;2024-03-06T01:27:04;96455.22;;;3.39;100.00
54994;BME280;40891;47.242;8.648;2024-03-06T01:29:29;96448.16;;;3.42;100.00
54994;BME280;40891;47.242;8.648;2024-03-06T01:31:55;96451.69;;;3.39;100.00
54994;BME280;40891;47.242;8.648;2024-03-06T01:34:20;96457.56;;;3.41;100.00
54994;BME280;40891;47.242;8.648;2024-03-06T01:36:46;96461.84;;;3.45;100.00
54994;BME280;40891;47.242;8.648;2024-03-06T01:39:11;96457.09;;;3.53;100.00
54994;BME280;40891;47.242;8.648;2024-03-06T01:41:37;96457.06;;;3.57;100.00
54994;BME280;40891;47.242;8.648;2024-03-06T01:44:02;96456.66;;;3.58;100.00
54994;BME280;40891;47.242;8.648;2024-03-06T01:46:28;96450.78;;;3.56;100.00
54994;BME280;40891;47.242;8.648;2024-03-06T01:48:54;96457.84;;;3.57;100.00
54994;BME280;40891;47.242;8.648;2024-03-06T01:51:19;96453.28;;;3.36;100.00
54994;BME280;40891;47.242;8.648;2024-03-06T01:53:45;96448.50;;;3.48;100.00
54994;BME280;40891;47.242;8.648;2024-03-06T01:56:10;96445.41;;;3.38;100.00
54994;BME280;40891;47.242;8.648;2024-03-06T01:58:38;96444.25;;;3.39;100.00
54994;BME280;40891;47.242;8.648;2024-03-06T02:01:04;96449.00;;;3.35;100.00
54994;BME280;40891;47.242;8.648;2024-03-06T02:03:31;96449.75;;;3.39;100.00
54994;BME280;40891;47.242;8.648;2024-03-06T02:05:58;96446.97;;;3.43;100.00
54994;BME280;40891;47.242;8.648;2024-03-06T02:08:25;96445.84;;;3.37;100.00
54994;BME280;40891;47.242;8.648;2024-03-06T02:10:50;96444.25;;;3.39;100.00
54994;BME280;40891;47.242;8.648;2024-03-06T02:13:16;96442.66;;;3.42;100.00
54994;BME280;40891;47.242;8.648;2024-03-06T02:15:44;96449.38;;;3.34;100.00
54994;BME280;40891;47.242;8.648;2024-03-06T02:18:10;96451.75;;;3.32;100.00
54994;BME280;40891;47.242;8.648;2024-03-06T02:20:38;96453.28;;;3.40;100.00
54994;BME280;40891;47.242;8.648;2024-03-06T02:23:04;96447.28;;;3.52;100.00
54994;BME280;40891;47.242;8.648;2024-03-06T02:25:29;96448.44;;;3.55;100.00
54994;BME280;40891;47.242;8.648;2024-03-06T02:27:54;96449.66;;;3.50;100.00
54994;BME280;40891;47.242;8.648;2024-03-06T02:30:20;96450.41;;;3.54;100.00
54994;BME280;40891;47.242;8.648;2024-03-06T02:32:48;96446.81;;;3.64;100.00
54994;BME280;40891;47.242;8.648;2024-03-06T02:35:13;96460.97;;;3.59;100.00
54994;BME280;40891;47.242;8.648;2024-03-06T02:37:41;96451.97;;;3.55;100.00
54994;BME280;40891;47.242;8.648;2024-03-06T02:40:07;96442.91;;;3.58;100.00
54994;BME280;40891;47.242;8.648;2024-03-06T02:42:35;96459.41;;;3.58;100.00
54994;BME280;40891;47.242;8.648;2024-03-06T02:45:00;96462.56;;;3.57;100.00
54994;BME280;40891;47.242;8.648;2024-03-06T02:47:25;96461.78;;;3.56;100.00
54994;BME280;40891;47.242;8.648;2024-03-06T02:49:51;96457.88;;;3.54;100.00
54994;BME280;40891;47.242;8.648;2024-03-06T02:52:16;96453.22;;;3.47;100.00
54994;BME280;40891;47.242;8.648;2024-03-06T02:54:42;96450.84;;;3.45;100.00
54994;BME280;40891;47.242;8.648;2024-03-06T02:57:08;96454.44;;;3.42;100.00
54994;BME280;40891;47.242;8.648;2024-03-06T02:59:33;96462.31;;;3.37;100.00
54994;BME280;40891;47.242;8.648;2024-03-06T03:01:58;96458.03;;;3.36;100.00
54994;BME280;40891;47.242;8.648;2024-03-06T03:04:23;96460.38;;;3.34;100.00
54994;BME280;40891;47.242;8.648;2024-03-06T03:06:49;96459.63;;;3.30;100.00
54994;BME280;40891;47.242;8.648;2024-03-06T03:09:14;96461.63;;;3.22;100.00
54994;BME280;40891;47.242;8.648;2024-03-06T03:11:39;96466.34;;;3.22;100.00
54994;BME280;40891;47.242;8.648;2024-03-06T03:14:06;96470.66;;;3.23;100.00
54994;BME280;40891;47.242;8.648;2024-03-06T03:16:32;96467.91;;;3.23;100.00
54994;BME280;40891;47.242;8.648;2024-03-06T03:18:57;96476.53;;;3.28;100.00
54994;BME280;40891;47.242;8.648;2024-03-06T03:21:23;96477.72;;;3.24;100.00
54994;BME280;40891;47.242;8.648;2024-03-06T03:23:48;96476.94;;;3.20;100.00
54994;BME280;40891;47.242;8.648;2024-03-06T03:26:14;96474.19;;;3.20;100.00
54994;BME280;40891;47.242;8.648;2024-03-06T03:28:40;96482.06;;;3.21;100.00
54994;BME280;40891;47.242;8.648;2024-03-06T03:31:07;96482.41;;;3.27;100.00
54994;BME280;40891;47.242;8.648;2024-03-06T03:33:34;96484.03;;;3.21;100.00
54994;BME280;40891;47.242;8.648;2024-03-06T03:35:59;96483.22;;;3.20;100.00
54994;BME280;40891;47.242;8.648;2024-03-06T03:38:25;96490.69;;;3.20;100.00
54994;BME280;40891;47.242;8.648;2024-03-06T03:40:50;96491.94;;;3.12;100.00
54994;BME280;40891;47.242;8.648;2024-03-06T03:43:15;96484.50;;;3.05;100.00
54994;BME280;40891;47.242;8.648;2024-03-06T03:45:41;96492.72;;;3.09;100.00
54994;BME280;40891;47.242;8.648;2024-03-06T03:48:06;96492.00;;;2.98;100.00
54994;BME280;40891;47.242;8.648;2024-03-06T03:50:32;96499.88;;;2.96;100.00
54994;BME280;40891;47.242;8.648;2024-03-06T03:52:58;96491.66;;;2.89;100.00
54994;BME280;40891;47.242;8.648;2024-03-06T03:55:26;96496.75;;;2.87;100.00
54994;BME280;40891;47.242;8.648;2024-03-06T03:57:51;96495.25;;;2.79;100.00
54994;BME280;40891;47.242;8.648;2024-03-06T04:00:17;96499.53;;;2.83;100.00
54994;BME280;40891;47.242;8.648;2024-03-06T04:02:43;96503.06;;;2.80;100.00
54994;BME280;40891;47.242;8.648;2024-03-06T04:05:08;96497.22;;;2.71;100.00
54994;BME280;40891;47.242;8.648;2024-03-06T04:07:35;96496.84;;;2.69;100.00
54994;BME280;40891;47.242;8.648;2024-03-06T04:10:01;96491.75;;;2.67;100.00
54994;BME280;40891;47.242;8.648;2024-03-06T04:12:26;96497.66;;;2.62;100.00
54994;BME280;40891;47.242;8.648;2024-03-06T04:14:51;96496.88;;;2.58;100.00
54994;BME280;40891;47.242;8.648;2024-03-06T04:17:17;96500.78;;;2.61;100.00
54994;BME280;40891;47.242;8.648;2024-03-06T04:19:42;96505.91;;;2.59;100.00
54994;BME280;40891;47.242;8.648;2024-03-06T04:22:08;96497.66;;;2.62;100.00
54994;BME280;40891;47.242;8.648;2024-03-06T04:24:33;96499.22;;;2.67;100.00
54994;BME280;40891;47.242;8.648;2024-03-06T04:26:58;96505.50;;;2.64;100.00
54994;BME280;40891;47.242;8.648;2024-03-06T04:29:23;96501.53;;;2.68;100.00
54994;BME280;40891;47.242;8.648;2024-03-06T04:31:49;96503.16;;;2.59;100.00
54994;BME280;40891;47.242;8.648;2024-03-06T04:34:14;96507.06;;;2.61;100.00
54994;BME280;40891;47.242;8.648;2024-03-06T04:36:39;96511.00;;;2.57;100.00
54994;BME280;40891;47.242;8.648;2024-03-06T04:39:05;96510.19;;;2.63;100.00
54994;BME280;40891;47.242;8.648;2024-03-06T04:41:35;96501.97;;;2.56;100.00
54994;BME280;40891;47.242;8.648;2024-03-06T04:44:00;96518.03;;;2.61;100.00
54994;BME280;40891;47.242;8.648;2024-03-06T04:46:26;96518.44;;;2.60;100.00
54994;BME280;40891;47.242;8.648;2024-03-06T04:48:52;96518.84;;;2.62;100.00
54994;BME280;40891;47.242;8.648;2024-03-06T04:51:17;96522.34;;;2.69;100.00
54994;BME280;40891;47.242;8.648;2024-03-06T04:53:45;96515.28;;;2.72;100.00
54994;BME280;40891;47.242;8.648;2024-03-06T04:56:10;96519.13;;;2.82;100.00
54994;BME280;40891;47.242;8.648;2024-03-06T04:58:35;96521.91;;;2.78;100.00
54994;BME280;40891;47.242;8.648;2024-03-06T05:01:01;96533.28;;;2.77;100.00
54994;BME280;40891;47.242;8.648;2024-03-06T05:03:26;96532.88;;;2.74;100.00
54994;BME280;40891;47.242;8.648;2024-03-06T05:05:51;96552.91;;;2.71;100.00
54994;BME280;40891;47.242;8.648;2024-03-06T05:08:16;96549.38;;;2.67;100.00
54994;BME280;40891;47.242;8.648;2024-03-06T05:10:42;96546.63;;;2.67;100.00
54994;BME280;40891;47.242;8.648;2024-03-06T05:13:07;96550.16;;;2.68;100.00
54994;BME280;40891;47.242;8.648;2024-03-06T05:15:32;96554.44;;;2.83;100.00
54994;BME280;40891;47.242;8.648;2024-03-06T05:17:58;96551.69;;;2.80;100.00
54994;BME280;40891;47.242;8.648;2024-03-06T05:20:23;96555.22;;;2.84;100.00
54994;BME280;40891;47.242;8.648;2024-03-06T05:22:49;96540.72;;;2.83;100.00
54994;BME280;40891;47.242;8.648;2024-03-06T05:25:14;96546.22;;;2.76;100.00
54994;BME280;40891;47.242;8.648;2024-03-06T05:27:39;96559.53;;;2.81;100.00
54994;BME280;40891;47.242;8.648;2024-03-06T05:30:05;96554.84;;;2.74;100.00
54994;BME280;40891;47.242;8.648;2024-03-06T05:32:30;96553.28;;;2.73;100.00
54994;BME280;40891;47.242;8.648;2024-03-06T05:34:56;96552.94;;;2.64;100.00
54994;BME280;40891;47.242;8.648;2024-03-06T05:37:23;96565.88;;;2.64;100.00
54994;BME280;40891;47.242;8.648;2024-03-06T05:39:48;96567.81;;;2.67;100.00
54994;BME280;40891;47.242;8.648;2024-03-06T05:42:13;96568.19;;;2.65;100.00
54994;BME280;40891;47.242;8.648;2024-03-06T05:44:39;96563.53;;;2.62;100.00
54994;BME280;40891;47.242;8.648;2024-03-06T05:47:04;96571.31;;;2.67;100.00
54994;BME280;40891;47.242;8.648;2024-03-06T05:49:30;96578.38;;;2.75;100.00
54994;BME280;40891;47.242;8.648;2024-03-06T05:51:57;96580.31;;;2.75;100.00
54994;BME280;40891;47.242;8.648;2024-03-06T05:54:23;96578.41;;;2.68;100.00
54994;BME280;40891;47.242;8.648;2024-03-06T05:56:49;96585.47;;;2.69;100.00
54994;BME280;40891;47.242;8.648;2024-03-06T05:59:15;96583.06;;;2.82;100.00
54994;BME280;40891;47.242;8.648;2024-03-06T06:01:40;96585.81;;;2.75;100.00
54994;BME280;40891;47.242;8.648;2024-03-06T06:04:08;96588.19;;;2.73;100.00
54994;BME280;40891;47.242;8.648;2024-03-06T06:06:34;96589.38;;;2.72;100.00
54994;BME280;40891;47.242;8.648;2024-03-06T06:09:00;96591.31;;;2.75;100.00
54994;BME280;40891;47.242;8.648;2024-03-06T06:11:25;96587.78;;;2.78;100.00
54994;BME280;40891;47.242;8.648;2024-03-06T06:13:50;96593.28;;;2.78;100.00
54994;BME280;40891;47.242;8.648;2024-03-06T06:16:15;96593.66;;;2.80;100.00
54994;BME280;40891;47.242;8.648;2024-03-06T06:18:41;96602.28;;;2.82;100.00
54994;BME280;40891;47.242;8.648;2024-03-06T06:21:07;96603.41;;;2.92;100.00
54994;BME280;40891;47.242;8.648;2024-03-06T06:23:33;96605.38;;;2.95;100.00
54994;BME280;40891;47.242;8.648;2024-03-06T06:25:58;96609.25;;;3.01;100.00
54994;BME280;40891;47.242;8.648;2024-03-06T06:28:24;96603.75;;;3.08;100.00
54994;BME280;40891;47.242;8.648;2024-03-06T06:30:49;96604.06;;;3.27;100.00
54994;BME280;40891;47.242;8.648;2024-03-06T06:33:17;96605.69;;;3.14;100.00
54994;BME280;40891;47.242;8.648;2024-03-06T06:35:43;96607.28;;;3.12;100.00
54994;BME280;40891;47.242;8.648;2024-03-06T06:38:09;96614.34;;;3.09;100.00
54994;BME280;40891;47.242;8.648;2024-03-06T06:40:34;96619.06;;;3.12;100.00
54994;BME280;40891;47.242;8.648;2024-03-06T06:43:01;96622.97;;;3.11;100.00
54994;BME280;40891;47.242;8.648;2024-03-06T06:45:26;96619.41;;;3.18;100.00
54994;BME280;40891;47.242;8.648;2024-03-06T06:47:52;96626.81;;;3.28;100.00
54994;BME280;40891;47.242;8.648;2024-03-06T06:50:17;96621.72;;;3.30;100.00
54994;BME280;40891;47.242;8.648;2024-03-06T06:52:43;96614.22;;;3.34;100.00
54994;BME280;40891;47.242;8.648;2024-03-06T06:55:09;96619.69;;;3.41;100.00
54994;BME280;40891;47.242;8.648;2024-03-06T06:57:37;96617.72;;;3.45;100.00
54994;BME280;40891;47.242;8.648;2024-03-06T07:00:02;96628.34;;;3.43;100.00
54994;BME280;40891;47.242;8.648;2024-03-06T07:02:42;96624.44;;;3.37;100.00
54994;BME280;40891;47.242;8.648;2024-03-06T07:05:08;96625.22;;;3.34;100.00
54994;BME280;40891;47.242;8.648;2024-03-06T07:07:34;96635.38;;;3.44;100.00
54994;BME280;40891;47.242;8.648;2024-03-06T07:10:00;96637.75;;;3.42;100.00
54994;BME280;40891;47.242;8.648;2024-03-06T07:12:25;96640.91;;;3.37;100.00
54994;BME280;40891;47.242;8.648;2024-03-06T07:14:50;96646.44;;;3.33;100.00
54994;BME280;40891;47.242;8.648;2024-03-06T07:17:16;96644.84;;;3.36;100.00
54994;BME280;40891;47.242;8.648;2024-03-06T07:19:41;96644.06;;;3.32;100.00
54994;BME280;40891;47.242;8.648;2024-03-06T07:22:06;96636.59;;;3.43;100.00
54994;BME280;40891;47.242;8.648;2024-03-06T07:24:31;96638.50;;;3.46;100.00
54994;BME280;40891;47.242;8.648;2024-03-06T07:26:57;96646.78;;;3.39;100.00
54994;BME280;40891;47.242;8.648;2024-03-06T07:29:22;96645.63;;;3.36;100.00
54994;BME280;40891;47.242;8.648;2024-03-06T07:31:47;96644.38;;;3.52;100.00
54994;BME280;40891;47.242;8.648;2024-03-06T07:34:13;96648.69;;;3.56;100.00
54994;BME280;40891;47.242;8.648;2024-03-06T07:36:39;96649.84;;;3.55;100.00
54994;BME280;40891;47.242;8.648;2024-03-06T07:39:05;96654.94;;;3.60;100.00
54994;BME280;40891;47.242;8.648;2024-03-06T07:41:30;96657.31;;;3.58;100.00
54994;BME280;40891;47.242;8.648;2024-03-06T07:43:58;96649.75;;;3.73;100.00
54994;BME280;40891;47.242;8.648;2024-03-06T07:46:23;96655.19;;;3.87;100.00
54994;BME280;40891;47.242;8.648;2024-03-06T07:48:48;96646.94;;;3.90;100.00
54994;BME280;40891;47.242;8.648;2024-03-06T07:51:14;96657.13;;;3.86;100.00
54994;BME280;40891;47.242;8.648;2024-03-06T07:53:39;96653.66;;;3.79;100.00
54994;BME280;40891;47.242;8.648;2024-03-06T07:56:05;96657.94;;;3.83;100.00
54994;BME280;40891;47.242;8.648;2024-03-06T07:58:30;96663.84;;;3.85;100.00
54994;BME280;40891;47.242;8.648;2024-03-06T08:00:56;96664.19;;;3.94;100.00
54994;BME280;40891;47.242;8.648;2024-03-06T08:03:22;96668.88;;;3.94;100.00
54994;BME280;40891;47.242;8.648;2024-03-06T08:05:51;96670.84;;;3.93;100.00
54994;BME280;40891;47.242;8.648;2024-03-06T08:08:20;96681.47;;;3.91;100.00
54994;BME280;40891;47.242;8.648;2024-03-06T08:10:46;96678.34;;;3.89;100.00
54994;BME280;40891;47.242;8.648;2024-03-06T08:13:11;96684.22;;;3.91;100.00
54994;BME280;40891;47.242;8.648;2024-03-06T08:15:36;96690.09;;;3.97;100.00
54994;BME280;40891;47.242;8.648;2024-03-06T08:18:02;96687.34;;;3.93;100.00
54994;BME280;40891;47.242;8.648;2024-03-06T08:20:29;96697.16;;;3.98;100.00
54994;BME280;40891;47.242;8.648;2024-03-06T08:22:56;96688.56;;;3.92;100.00
54994;BME280;40891;47.242;8.648;2024-03-06T08:25:21;96695.22;;;3.91;100.00
54994;BME280;40891;47.242;8.648;2024-03-06T08:27:47;96689.63;;;4.09;100.00
54994;BME280;40891;47.242;8.648;2024-03-06T08:30:13;96697.13;;;4.01;100.00
54994;BME280;40891;47.242;8.648;2024-03-06T08:32:38;96699.94;;;3.94;100.00
54994;BME280;40891;47.242;8.648;2024-03-06T08:35:05;96703.88;;;3.90;100.00
54994;BME280;40891;47.242;8.648;2024-03-06T08:37:34;96708.97;;;3.91;100.00
54994;BME280;40891;47.242;8.648;2024-03-06T08:40:00;96701.59;;;3.74;100.00
54994;BME280;40891;47.242;8.648;2024-03-06T08:42:27;96709.34;;;3.93;100.00
54994;BME280;40891;47.242;8.648;2024-03-06T08:44:52;96713.38;;;3.78;100.00
54994;BME280;40891;47.242;8.648;2024-03-06T08:47:18;96721.22;;;3.76;100.00
54994;BME280;40891;47.242;8.648;2024-03-06T08:49:43;96712.22;;;3.72;100.00
54994;BME280;40891;47.242;8.648;2024-03-06T08:52:09;96722.03;;;3.70;100.00
54994;BME280;40891;47.242;8.648;2024-03-06T08:54:35;96725.19;;;3.68;100.00
54994;BME280;40891;47.242;8.648;2024-03-06T08:57:01;96727.19;;;3.64;100.00
54994;BME280;40891;47.242;8.648;2024-03-06T08:59:28;96733.84;;;3.67;100.00
54994;BME280;40891;47.242;8.648;2024-03-06T09:01:53;96734.25;;;3.58;100.00
54994;BME280;40891;47.242;8.648;2024-03-06T09:04:19;96736.19;;;3.65;100.00
54994;BME280;40891;47.242;8.648;2024-03-06T09:06:45;96737.78;;;3.62;100.00
54994;BME280;40891;47.242;8.648;2024-03-06T09:09:10;96738.16;;;3.68;100.00
54994;BME280;40891;47.242;8.648;2024-03-06T09:11:35;96738.50;;;3.80;100.00
54994;BME280;40891;47.242;8.648;2024-03-06T09:14:00;96747.53;;;3.81;100.00
54994;BME280;40891;47.242;8.648;2024-03-06T09:16:26;96739.53;;;4.07;100.00
54994;BME280;40891;47.242;8.648;2024-03-06T09:18:52;96745.03;;;4.07;100.00
54994;BME280;40891;47.242;8.648;2024-03-06T09:21:17;96750.22;;;3.95;100.00
54994;BME280;40891;47.242;8.648;2024-03-06T09:23:43;96748.69;;;3.90;100.00
54994;BME280;40891;47.242;8.648;2024-03-06T09:26:08;96746.69;;;3.91;100.00
54994;BME280;40891;47.242;8.648;2024-03-06T09:28:33;96746.69;;;3.91;100.00
54994;BME280;40891;47.242;8.648;2024-03-06T09:30:59;96751.03;;;3.88;100.00
54994;BME280;40891;47.242;8.648;2024-03-06T09:33:25;96749.06;;;3.89;100.00
54994;BME280;40891;47.242;8.648;2024-03-06T09:35:50;96751.78;;;3.99;100.00
54994;BME280;40891;47.242;8.648;2024-03-06T09:38:15;96754.16;;;3.94;100.00
54994;BME280;40891;47.242;8.648;2024-03-06T09:40:41;96752.16;;;4.01;100.00
54994;BME280;40891;47.242;8.648;2024-03-06T09:43:07;96749.75;;;4.10;100.00
54994;BME280;40891;47.242;8.648;2024-03-06T09:45:33;96750.50;;;4.18;100.00
54994;BME280;40891;47.242;8.648;2024-03-06T09:47:58;96751.28;;;4.19;100.00
54994;BME280;40891;47.242;8.648;2024-03-06T09:50:24;96752.03;;;4.23;100.00
54994;BME280;40891;47.242;8.648;2024-03-06T09:52:51;96749.69;;;4.21;100.00
54994;BME280;40891;47.242;8.648;2024-03-06T09:55:19;96748.50;;;4.22;100.00
54994;BME280;40891;47.242;8.648;2024-03-06T09:57:45;96751.66;;;4.21;100.00
54994;BME280;40891;47.242;8.648;2024-03-06T10:00:10;96740.59;;;4.28;100.00
54994;BME280;40891;47.242;8.648;2024-03-06T10:02:44;96748.44;;;4.29;100.00
54994;BME280;40891;47.242;8.648;2024-03-06T10:05:21;96749.94;;;4.41;100.00
54994;BME280;40891;47.242;8.648;2024-03-06T10:07:47;96754.56;;;4.54;100.00
54994;BME280;40891;47.242;8.648;2024-03-06T10:10:12;96753.44;;;4.48;100.00
54994;BME280;40891;47.242;8.648;2024-03-06T10:12:39;96759.31;;;4.54;100.00
54994;BME280;40891;47.242;8.648;2024-03-06T10:15:04;96757.63;;;4.67;100.00
54994;BME280;40891;47.242;8.648;2024-03-06T10:17:30;96758.78;;;4.73;100.00
54994;BME280;40891;47.242;8.648;2024-03-06T10:19:55;96766.56;;;4.78;100.00
54994;BME280;40891;47.242;8.648;2024-03-06T10:22:22;96755.97;;;4.80;100.00
54994;BME280;40891;47.242;8.648;2024-03-06T10:24:49;96768.09;;;4.90;100.00
54994;BME280;40891;47.242;8.648;2024-03-06T10:27:17;96755.47;;;4.92;100.00
54994;BME280;40891;47.242;8.648;2024-03-06T10:29:43;96768.09;;;4.90;100.00
54994;BME280;40891;47.242;8.648;2024-03-06T10:32:08;96758.25;;;4.85;100.00
54994;BME280;40891;47.242;8.648;2024-03-06T10:34:35;96761.00;;;4.89;100.00
54994;BME280;40891;47.242;8.648;2024-03-06T10:37:03;96753.09;;;4.94;100.00
54994;BME280;40891;47.242;8.648;2024-03-06T10:39:30;96762.03;;;4.57;100.00
54994;BME280;40891;47.242;8.648;2024-03-06T10:42:01;96762.44;;;4.56;100.00
54994;BME280;40891;47.242;8.648;2024-03-06T10:44:27;96761.91;;;4.75;100.00
54994;BME280;40891;47.242;8.648;2024-03-06T10:47:01;96761.06;;;4.78;100.00
54994;BME280;40891;47.242;8.648;2024-03-06T10:49:27;96762.56;;;4.90;100.00
54994;BME280;40891;47.242;8.648;2024-03-06T10:51:59;96763.44;;;4.76;100.00
54994;BME280;40891;47.242;8.648;2024-03-06T10:54:29;96771.75;;;4.72;100.00
54994;BME280;40891;47.242;8.648;2024-03-06T10:56:55;96774.50;;;4.72;100.00
54994;BME280;40891;47.242;8.648;2024-03-06T10:59:20;96770.69;;;4.56;100.00
54994;BME280;40891;47.242;8.648;2024-03-06T11:01:47;96773.13;;;4.47;100.00
54994;BME280;40891;47.242;8.648;2024-03-06T11:04:13;96770.28;;;4.57;100.00
54994;BME280;40891;47.242;8.648;2024-03-06T11:06:38;96776.09;;;4.70;100.00
54994;BME280;40891;47.242;8.648;2024-03-06T11:09:04;96772.13;;;4.71;100.00
54994;BME280;40891;47.242;8.648;2024-03-06T11:11:31;96773.59;;;4.90;100.00
54994;BME280;40891;47.242;8.648;2024-03-06T11:14:01;96764.97;;;4.84;100.00
54994;BME280;40891;47.242;8.648;2024-03-06T11:16:32;96777.16;;;4.87;100.00
54994;BME280;40891;47.242;8.648;2024-03-06T11:19:17;96768.03;;;4.93;100.00
54994;BME280;40891;47.242;8.648;2024-03-06T11:21:46;96770.47;;;4.84;100.00
54994;BME280;40891;47.242;8.648;2024-03-06T11:24:16;96766.63;;;4.74;100.00
54994;BME280;40891;47.242;8.648;2024-03-06T11:26:43;96773.72;;;4.72;100.00
54994;BME280;40891;47.242;8.648;2024-03-06T11:29:08;96770.09;;;4.82;100.00
54994;BME280;40891;47.242;8.648;2024-03-06T11:31:34;96775.19;;;4.87;100.00
54994;BME280;40891;47.242;8.648;2024-03-06T11:34:04;96773.19;;;4.88;100.00
54994;BME280;40891;47.242;8.648;2024-03-06T11:36:29;96780.13;;;4.58;100.00
54994;BME280;40891;47.242;8.648;2024-03-06T11:39:06;96778.16;;;4.59;100.00
54994;BME280;40891;47.242;8.648;2024-03-06T11:41:52;96784.22;;;4.33;100.00
54994;BME280;40891;47.242;8.648;2024-03-06T11:44:19;96786.19;;;4.29;100.00
54994;BME280;40891;47.242;8.648;2024-03-06T11:49:24;96780.69;;;4.29;100.00
54994;BME280;40891;47.242;8.648;2024-03-06T11:51:54;96779.22;;;4.10;100.00
54994;BME280;40891;47.242;8.648;2024-03-06T11:54:20;96786.63;;;4.17;100.00
54994;BME280;40891;47.242;8.648;2024-03-06T11:56:50;96783.13;;;4.12;100.00
54994;BME280;40891;47.242;8.648;2024-03-06T11:59:16;96784.22;;;4.29;100.00
54994;BME280;40891;47.242;8.648;2024-03-06T12:01:42;96779.56;;;4.23;100.00
54994;BME280;40891;47.242;8.648;2024-03-06T12:04:07;96775.59;;;4.24;100.00
54994;BME280;40891;47.242;8.648;2024-03-06T12:06:33;96777.56;;;4.27;100.00
54994;BME280;40891;47.242;8.648;2024-03-06T12:08:59;96765.72;;;4.33;100.00
54994;BME280;40891;47.242;8.648;2024-03-06T12:11:25;96762.63;;;4.24;100.00
54994;BME280;40891;47.242;8.648;2024-03-06T12:13:54;96762.22;;;4.29;100.00
54994;BME280;40891;47.242;8.648;2024-03-06T12:16:21;96760.13;;;4.47;100.00
54994;BME280;40891;47.242;8.648;2024-03-06T12:18:46;96758.94;;;4.52;100.00
54994;BME280;40891;47.242;8.648;2024-03-06T12:21:12;96761.59;;;4.62;100.00
54994;BME280;40891;47.242;8.648;2024-03-06T12:23:38;96766.31;;;4.62;100.00
54994;BME280;40891;47.242;8.648;2024-03-06T12:26:08;96758.78;;;4.69;100.00
54994;BME280;40891;47.242;8.648;2024-03-06T12:28:39;96758.72;;;4.80;100.00
54994;BME280;40891;47.242;8.648;2024-03-06T12:31:05;96754.00;;;4.77;100.00
54994;BME280;40891;47.242;8.648;2024-03-06T12:33:32;96757.88;;;4.87;100.00
54994;BME280;40891;47.242;8.648;2024-03-06T12:36:06;96754.25;;;4.97;100.00
54994;BME280;40891;47.242;8.648;2024-03-06T12:38:33;96749.03;;;5.06;100.00
54994;BME280;40891;47.242;8.648;2024-03-06T12:40:59;96756.91;;;5.44;100.00
54994;BME280;40891;47.242;8.648;2024-03-06T12:43:25;96759.00;;;5.33;100.00
54994;BME280;40891;47.242;8.648;2024-03-06T12:45:51;96746.28;;;5.06;100.00
54994;BME280;40891;47.242;8.648;2024-03-06T12:48:20;96753.06;;;5.38;100.00
54994;BME280;40891;47.242;8.648;2024-03-06T12:50:45;96753.97;;;5.62;100.00
54994;BME280;40891;47.242;8.648;2024-03-06T12:53:16;96755.72;;;5.45;100.00
54994;BME280;40891;47.242;8.648;2024-03-06T12:55:42;96752.97;;;5.45;100.00
54994;BME280;40891;47.242;8.648;2024-03-06T12:58:10;96748.44;;;5.28;100.00